sensor_id;sensor_type;location;lat;lon;timestamp;P1;durP1;ratioP1;P2;durP2;ratioP2
37527;SDS011;23372;52.050;4.810;2022-11-14T00:02:13;18.87;;;13.47;;
37527;SDS011;23372;52.050;4.810;2022-11-14T00:04:40;19.67;;;12.97;;
37527;SDS011;23372;52.050;4.810;2022-11-14T00:07:09;19.03;;;13.23;;
37527;SDS011;23372;52.050;4.810;2022-11-14T00:09:35;21.33;;;13.27;;
37527;SDS011;23372;52.050;4.810;2022-11-14T00:12:02;21.03;;;12.60;;
37527;SDS011;23372;52.050;4.810;2022-11-14T00:14:28;20.70;;;13.40;;
37527;SDS011;23372;52.050;4.810;2022-11-14T00:16:54;21.17;;;13.90;;
37527;SDS011;23372;52.050;4.810;2022-11-14T00:19:19;20.30;;;13.30;;
37527;SDS011;23372;52.050;4.810;2022-11-14T00:21:45;17.50;;;12.73;;
37527;SDS011;23372;52.050;4.810;2022-11-14T00:24:10;19.73;;;13.63;;
37527;SDS011;23372;52.050;4.810;2022-11-14T00:26:36;21.30;;;13.67;;
37527;SDS011;23372;52.050;4.810;2022-11-14T00:29:01;19.40;;;13.60;;
37527;SDS011;23372;52.050;4.810;2022-11-14T00:31:27;19.13;;;13.00;;
37527;SDS011;23372;52.050;4.810;2022-11-14T00:33:52;22.03;;;13.27;;
37527;SDS011;23372;52.050;4.810;2022-11-14T00:36:18;18.27;;;13.23;;
37527;SDS011;23372;52.050;4.810;2022-11-14T00:38:43;21.23;;;13.33;;
37527;SDS011;23372;52.050;4.810;2022-11-14T00:41:09;18.90;;;13.07;;
37527;SDS011;23372;52.050;4.810;2022-11-14T00:43:34;18.13;;;12.93;;
37527;SDS011;23372;52.050;4.810;2022-11-14T00:45:59;19.97;;;12.77;;
37527;SDS011;23372;52.050;4.810;2022-11-14T00:48:25;22.37;;;13.30;;
37527;SDS011;23372;52.050;4.810;2022-11-14T00:50:50;20.03;;;11.93;;
37527;SDS011;23372;52.050;4.810;2022-11-14T00:53:16;19.27;;;12.87;;
37527;SDS011;23372;52.050;4.810;2022-11-14T00:55:42;20.00;;;14.20;;
37527;SDS011;23372;52.050;4.810;2022-11-14T00:58:07;20.47;;;13.60;;
37527;SDS011;23372;52.050;4.810;2022-11-14T01:00:33;19.17;;;12.90;;
37527;SDS011;23372;52.050;4.810;2022-11-14T01:02:59;18.63;;;13.50;;
37527;SDS011;23372;52.050;4.810;2022-11-14T01:05:24;18.60;;;12.67;;
37527;SDS011;23372;52.050;4.810;2022-11-14T01:07:50;16.67;;;11.60;;
37527;SDS011;23372;52.050;4.810;2022-11-14T01:10:16;17.30;;;12.40;;
37527;SDS011;23372;52.050;4.810;2022-11-14T01:12:42;20.83;;;11.80;;
37527;SDS011;23372;52.050;4.810;2022-11-14T01:15:08;18.37;;;12.70;;
37527;SDS011;23372;52.050;4.810;2022-11-14T01:17:33;19.27;;;12.20;;
37527;SDS011;23372;52.050;4.810;2022-11-14T01:19:59;16.70;;;12.37;;
37527;SDS011;23372;52.050;4.810;2022-11-14T01:22:24;19.80;;;13.10;;
37527;SDS011;23372;52.050;4.810;2022-11-14T01:24:50;18.27;;;12.63;;
37527;SDS011;23372;52.050;4.810;2022-11-14T01:27:15;19.40;;;12.63;;
37527;SDS011;23372;52.050;4.810;2022-11-14T01:29:41;21.03;;;13.47;;
37527;SDS011;23372;52.050;4.810;2022-11-14T01:32:06;18.90;;;13.00;;
37527;SDS011;23372;52.050;4.810;2022-11-14T01:34:32;20.57;;;13.63;;
37527;SDS011;23372;52.050;4.810;2022-11-14T01:36:57;20.50;;;13.33;;
37527;SDS011;23372;52.050;4.810;2022-11-14T01:39:24;20.87;;;13.27;;
37527;SDS011;23372;52.050;4.810;2022-11-14T01:41:51;19.10;;;13.53;;
37527;SDS011;23372;52.050;4.810;2022-11-14T01:47:08;22.90;;;13.83;;
37527;SDS011;23372;52.050;4.810;2022-11-14T01:49:37;22.07;;;13.77;;
37527;SDS011;23372;52.050;4.810;2022-11-14T01:52:06;19.67;;;13.97;;
37527;SDS011;23372;52.050;4.810;2022-11-14T01:54:36;19.00;;;13.00;;
37527;SDS011;23372;52.050;4.810;2022-11-14T01:57:05;21.83;;;13.37;;
37527;SDS011;23372;52.050;4.810;2022-11-14T01:59:36;22.63;;;14.40;;
37527;SDS011;23372;52.050;4.810;2022-11-14T02:02:06;19.73;;;13.73;;
37527;SDS011;23372;52.050;4.810;2022-11-14T02:04:37;20.17;;;13.40;;
37527;SDS011;23372;52.050;4.810;2022-11-14T02:07:06;23.53;;;13.60;;
37527;SDS011;23372;52.050;4.810;2022-11-14T02:09:34;21.10;;;14.43;;
37527;SDS011;23372;52.050;4.810;2022-11-14T02:12:02;22.13;;;13.67;;
37527;SDS011;23372;52.050;4.810;2022-11-14T02:14:30;19.97;;;13.70;;
37527;SDS011;23372;52.050;4.810;2022-11-14T02:16:57;21.70;;;14.57;;
37527;SDS011;23372;52.050;4.810;2022-11-14T02:19:22;24.37;;;15.17;;
37527;SDS011;23372;52.050;4.810;2022-11-14T02:21:48;21.63;;;13.80;;
37527;SDS011;23372;52.050;4.810;2022-11-14T02:24:13;22.77;;;14.33;;
37527;SDS011;23372;52.050;4.810;2022-11-14T02:26:39;21.70;;;14.43;;
37527;SDS011;23372;52.050;4.810;2022-11-14T02:29:07;23.97;;;14.70;;
37527;SDS011;23372;52.050;4.810;2022-11-14T02:31:34;20.50;;;14.60;;
37527;SDS011;23372;52.050;4.810;2022-11-14T02:34:00;23.83;;;14.50;;
37527;SDS011;23372;52.050;4.810;2022-11-14T02:36:25;22.63;;;14.40;;
37527;SDS011;23372;52.050;4.810;2022-11-14T02:38:51;21.97;;;14.23;;
37527;SDS011;23372;52.050;4.810;2022-11-14T02:41:16;23.97;;;14.37;;
37527;SDS011;23372;52.050;4.810;2022-11-14T02:43:42;22.90;;;14.77;;
37527;SDS011;23372;52.050;4.810;2022-11-14T02:46:07;23.83;;;14.97;;
37527;SDS011;23372;52.050;4.810;2022-11-14T02:48:33;27.97;;;15.53;;
37527;SDS011;23372;52.050;4.810;2022-11-14T02:50:59;23.80;;;14.57;;
37527;SDS011;23372;52.050;4.810;2022-11-14T02:53:24;26.87;;;15.03;;
37527;SDS011;23372;52.050;4.810;2022-11-14T02:55:50;26.73;;;15.10;;
37527;SDS011;23372;52.050;4.810;2022-11-14T02:58:15;26.93;;;16.10;;
37527;SDS011;23372;52.050;4.810;2022-11-14T03:00:41;26.00;;;15.07;;
37527;SDS011;23372;52.050;4.810;2022-11-14T03:03:06;30.33;;;16.37;;
37527;SDS011;23372;52.050;4.810;2022-11-14T03:05:32;25.80;;;15.43;;
37527;SDS011;23372;52.050;4.810;2022-11-14T03:07:57;25.80;;;15.93;;
37527;SDS011;23372;52.050;4.810;2022-11-14T03:10:23;27.33;;;16.83;;
37527;SDS011;23372;52.050;4.810;2022-11-14T03:12:55;27.90;;;17.13;;
37527;SDS011;23372;52.050;4.810;2022-11-14T03:15:21;27.60;;;16.47;;
37527;SDS011;23372;52.050;4.810;2022-11-14T03:17:47;32.93;;;18.20;;
37527;SDS011;23372;52.050;4.810;2022-11-14T03:20:13;29.47;;;17.37;;
37527;SDS011;23372;52.050;4.810;2022-11-14T03:22:39;28.80;;;16.50;;
37527;SDS011;23372;52.050;4.810;2022-11-14T03:25:04;28.33;;;16.47;;
37527;SDS011;23372;52.050;4.810;2022-11-14T03:27:30;30.07;;;18.33;;
37527;SDS011;23372;52.050;4.810;2022-11-14T03:29:56;31.67;;;17.97;;
37527;SDS011;23372;52.050;4.810;2022-11-14T03:32:21;35.93;;;18.07;;
37527;SDS011;23372;52.050;4.810;2022-11-14T03:34:47;31.07;;;17.90;;
37527;SDS011;23372;52.050;4.810;2022-11-14T03:37:12;35.17;;;18.50;;
37527;SDS011;23372;52.050;4.810;2022-11-14T03:39:38;33.03;;;19.03;;
37527;SDS011;23372;52.050;4.810;2022-11-14T03:42:03;30.47;;;18.80;;
37527;SDS011;23372;52.050;4.810;2022-11-14T03:44:29;34.00;;;18.93;;
37527;SDS011;23372;52.050;4.810;2022-11-14T03:46:54;36.30;;;19.80;;
37527;SDS011;23372;52.050;4.810;2022-11-14T03:49:20;32.27;;;18.67;;
37527;SDS011;23372;52.050;4.810;2022-11-14T03:51:45;37.17;;;19.20;;
37527;SDS011;23372;52.050;4.810;2022-11-14T03:54:11;36.27;;;19.57;;
37527;SDS011;23372;52.050;4.810;2022-11-14T03:56:36;37.90;;;20.97;;
37527;SDS011;23372;52.050;4.810;2022-11-14T03:59:02;35.20;;;19.70;;
37527;SDS011;23372;52.050;4.810;2022-11-14T04:01:27;35.77;;;18.70;;
37527;SDS011;23372;52.050;4.810;2022-11-14T04:03:53;33.23;;;17.53;;
37527;SDS011;23372;52.050;4.810;2022-11-14T04:06:19;36.70;;;18.67;;
37527;SDS011;23372;52.050;4.810;2022-11-14T04:08:45;34.13;;;18.33;;
37527;SDS011;23372;52.050;4.810;2022-11-14T04:11:10;37.30;;;19.83;;
37527;SDS011;23372;52.050;4.810;2022-11-14T04:13:36;37.67;;;19.97;;
37527;SDS011;23372;52.050;4.810;2022-11-14T04:16:01;40.60;;;20.30;;
37527;SDS011;23372;52.050;4.810;2022-11-14T04:18:27;38.10;;;19.37;;
37527;SDS011;23372;52.050;4.810;2022-11-14T04:20:53;37.10;;;20.30;;
37527;SDS011;23372;52.050;4.810;2022-11-14T04:23:18;35.77;;;19.77;;
37527;SDS011;23372;52.050;4.810;2022-11-14T04:25:44;36.90;;;19.27;;
37527;SDS011;23372;52.050;4.810;2022-11-14T04:28:10;37.50;;;20.33;;
37527;SDS011;23372;52.050;4.810;2022-11-14T04:30:37;39.80;;;20.93;;
37527;SDS011;23372;52.050;4.810;2022-11-14T04:33:02;37.20;;;20.27;;
37527;SDS011;23372;52.050;4.810;2022-11-14T04:35:28;37.37;;;20.17;;
37527;SDS011;23372;52.050;4.810;2022-11-14T04:37:53;37.57;;;20.70;;
37527;SDS011;23372;52.050;4.810;2022-11-14T04:40:19;37.50;;;19.43;;
37527;SDS011;23372;52.050;4.810;2022-11-14T04:42:44;37.73;;;20.30;;
37527;SDS011;23372;52.050;4.810;2022-11-14T04:45:10;36.30;;;19.57;;
37527;SDS011;23372;52.050;4.810;2022-11-14T04:47:35;38.77;;;20.33;;
37527;SDS011;23372;52.050;4.810;2022-11-14T04:50:01;40.47;;;19.37;;
37527;SDS011;23372;52.050;4.810;2022-11-14T04:52:27;40.60;;;20.53;;
37527;SDS011;23372;52.050;4.810;2022-11-14T04:54:53;43.07;;;20.90;;
37527;SDS011;23372;52.050;4.810;2022-11-14T04:57:18;41.27;;;20.93;;
37527;SDS011;23372;52.050;4.810;2022-11-14T04:59:43;34.60;;;19.60;;
37527;SDS011;23372;52.050;4.810;2022-11-14T05:02:09;42.47;;;21.80;;
37527;SDS011;23372;52.050;4.810;2022-11-14T05:04:35;44.90;;;21.50;;
37527;SDS011;23372;52.050;4.810;2022-11-14T05:07:00;39.43;;;20.43;;
37527;SDS011;23372;52.050;4.810;2022-11-14T05:09:25;43.20;;;22.13;;
37527;SDS011;23372;52.050;4.810;2022-11-14T05:11:51;45.27;;;22.83;;
37527;SDS011;23372;52.050;4.810;2022-11-14T05:14:17;41.40;;;21.47;;
37527;SDS011;23372;52.050;4.810;2022-11-14T05:16:42;39.67;;;21.30;;
37527;SDS011;23372;52.050;4.810;2022-11-14T05:19:08;44.53;;;23.07;;
37527;SDS011;23372;52.050;4.810;2022-11-14T05:21:33;40.87;;;21.67;;
37527;SDS011;23372;52.050;4.810;2022-11-14T05:23:59;40.17;;;22.80;;
37527;SDS011;23372;52.050;4.810;2022-11-14T05:26:24;44.87;;;22.30;;
37527;SDS011;23372;52.050;4.810;2022-11-14T05:28:50;40.37;;;21.93;;
37527;SDS011;23372;52.050;4.810;2022-11-14T05:31:15;42.87;;;21.93;;
37527;SDS011;23372;52.050;4.810;2022-11-14T05:33:41;42.33;;;22.13;;
37527;SDS011;23372;52.050;4.810;2022-11-14T05:36:08;45.00;;;23.43;;
37527;SDS011;23372;52.050;4.810;2022-11-14T05:38:35;43.90;;;23.17;;
37527;SDS011;23372;52.050;4.810;2022-11-14T05:41:05;41.53;;;21.83;;
37527;SDS011;23372;52.050;4.810;2022-11-14T05:43:35;45.03;;;22.93;;
37527;SDS011;23372;52.050;4.810;2022-11-14T05:46:01;43.00;;;22.40;;
37527;SDS011;23372;52.050;4.810;2022-11-14T05:48:28;44.80;;;22.10;;
37527;SDS011;23372;52.050;4.810;2022-11-14T05:50:55;39.70;;;21.27;;
37527;SDS011;23372;52.050;4.810;2022-11-14T05:53:21;42.47;;;21.53;;
37527;SDS011;23372;52.050;4.810;2022-11-14T05:55:47;37.83;;;20.00;;
37527;SDS011;23372;52.050;4.810;2022-11-14T05:58:12;44.47;;;21.40;;
37527;SDS011;23372;52.050;4.810;2022-11-14T06:00:38;39.87;;;21.60;;
37527;SDS011;23372;52.050;4.810;2022-11-14T06:03:04;42.80;;;22.37;;
37527;SDS011;23372;52.050;4.810;2022-11-14T06:05:29;42.37;;;21.73;;
37527;SDS011;23372;52.050;4.810;2022-11-14T06:07:55;40.23;;;18.70;;
37527;SDS011;23372;52.050;4.810;2022-11-14T06:10:22;39.43;;;20.20;;
37527;SDS011;23372;52.050;4.810;2022-11-14T06:12:48;39.97;;;19.33;;
37527;SDS011;23372;52.050;4.810;2022-11-14T06:15:13;35.03;;;18.83;;
37527;SDS011;23372;52.050;4.810;2022-11-14T06:17:39;36.57;;;18.87;;
37527;SDS011;23372;52.050;4.810;2022-11-14T06:20:05;39.77;;;19.77;;
37527;SDS011;23372;52.050;4.810;2022-11-14T06:22:31;37.93;;;18.80;;
37527;SDS011;23372;52.050;4.810;2022-11-14T06:24:58;40.37;;;20.63;;
37527;SDS011;23372;52.050;4.810;2022-11-14T06:27:23;42.23;;;21.37;;
37527;SDS011;23372;52.050;4.810;2022-11-14T06:29:49;43.30;;;23.30;;
37527;SDS011;23372;52.050;4.810;2022-11-14T06:32:14;41.37;;;21.57;;
37527;SDS011;23372;52.050;4.810;2022-11-14T06:34:40;40.67;;;21.30;;
37527;SDS011;23372;52.050;4.810;2022-11-14T06:37:05;45.97;;;22.00;;
37527;SDS011;23372;52.050;4.810;2022-11-14T06:39:30;42.87;;;21.53;;
37527;SDS011;23372;52.050;4.810;2022-11-14T06:41:56;45.13;;;21.70;;
37527;SDS011;23372;52.050;4.810;2022-11-14T06:44:21;38.23;;;19.70;;
37527;SDS011;23372;52.050;4.810;2022-11-14T06:46:47;36.63;;;18.97;;
37527;SDS011;23372;52.050;4.810;2022-11-14T06:49:13;36.33;;;19.10;;
37527;SDS011;23372;52.050;4.810;2022-11-14T06:51:38;33.93;;;16.90;;
37527;SDS011;23372;52.050;4.810;2022-11-14T06:54:04;31.00;;;16.53;;
37527;SDS011;23372;52.050;4.810;2022-11-14T06:56:30;30.07;;;15.87;;
37527;SDS011;23372;52.050;4.810;2022-11-14T06:58:55;34.67;;;17.40;;
37527;SDS011;23372;52.050;4.810;2022-11-14T07:01:22;38.83;;;18.70;;
37527;SDS011;23372;52.050;4.810;2022-11-14T07:03:50;36.63;;;20.07;;
37527;SDS011;23372;52.050;4.810;2022-11-14T07:06:23;44.87;;;20.33;;
37527;SDS011;23372;52.050;4.810;2022-11-14T07:08:53;41.60;;;20.70;;
37527;SDS011;23372;52.050;4.810;2022-11-14T07:11:20;42.63;;;21.80;;
37527;SDS011;23372;52.050;4.810;2022-11-14T07:13:48;40.80;;;20.83;;
37527;SDS011;23372;52.050;4.810;2022-11-14T07:16:25;45.93;;;21.67;;
37527;SDS011;23372;52.050;4.810;2022-11-14T07:18:59;49.30;;;21.10;;
37527;SDS011;23372;52.050;4.810;2022-11-14T07:21:26;41.93;;;21.70;;
37527;SDS011;23372;52.050;4.810;2022-11-14T07:23:53;50.60;;;22.27;;
37527;SDS011;23372;52.050;4.810;2022-11-14T07:26:20;47.30;;;22.10;;
37527;SDS011;23372;52.050;4.810;2022-11-14T07:28:45;46.97;;;23.47;;
37527;SDS011;23372;52.050;4.810;2022-11-14T07:31:12;45.97;;;23.33;;
37527;SDS011;23372;52.050;4.810;2022-11-14T07:33:39;49.17;;;23.87;;
37527;SDS011;23372;52.050;4.810;2022-11-14T07:36:06;48.53;;;22.90;;
37527;SDS011;23372;52.050;4.810;2022-11-14T07:38:33;51.00;;;24.47;;
37527;SDS011;23372;52.050;4.810;2022-11-14T07:41:01;46.80;;;23.33;;
37527;SDS011;23372;52.050;4.810;2022-11-14T07:43:29;49.90;;;22.50;;
37527;SDS011;23372;52.050;4.810;2022-11-14T07:46:01;49.37;;;23.67;;
37527;SDS011;23372;52.050;4.810;2022-11-14T07:48:28;48.47;;;22.00;;
37527;SDS011;23372;52.050;4.810;2022-11-14T07:50:58;41.50;;;21.57;;
37527;SDS011;23372;52.050;4.810;2022-11-14T07:53:28;47.67;;;22.23;;
37527;SDS011;23372;52.050;4.810;2022-11-14T07:55:54;50.80;;;22.67;;
37527;SDS011;23372;52.050;4.810;2022-11-14T07:58:21;49.00;;;23.97;;
37527;SDS011;23372;52.050;4.810;2022-11-14T08:00:46;45.50;;;20.73;;
37527;SDS011;23372;52.050;4.810;2022-11-14T08:03:12;44.07;;;22.27;;
37527;SDS011;23372;52.050;4.810;2022-11-14T08:05:38;46.00;;;22.40;;
37527;SDS011;23372;52.050;4.810;2022-11-14T08:08:03;48.53;;;22.67;;
37527;SDS011;23372;52.050;4.810;2022-11-14T08:10:29;44.90;;;23.67;;
37527;SDS011;23372;52.050;4.810;2022-11-14T08:13:02;47.10;;;22.37;;
37527;SDS011;23372;52.050;4.810;2022-11-14T08:15:29;47.07;;;22.70;;
37527;SDS011;23372;52.050;4.810;2022-11-14T08:17:58;46.47;;;21.70;;
37527;SDS011;23372;52.050;4.810;2022-11-14T08:20:25;47.33;;;22.50;;
37527;SDS011;23372;52.050;4.810;2022-11-14T08:22:54;49.03;;;23.43;;
37527;SDS011;23372;52.050;4.810;2022-11-14T08:25:26;45.80;;;22.13;;
37527;SDS011;23372;52.050;4.810;2022-11-14T08:27:52;43.77;;;22.37;;
37527;SDS011;23372;52.050;4.810;2022-11-14T08:30:17;40.27;;;22.57;;
37527;SDS011;23372;52.050;4.810;2022-11-14T08:32:43;49.57;;;23.33;;
37527;SDS011;23372;52.050;4.810;2022-11-14T08:35:09;46.73;;;23.67;;
37527;SDS011;23372;52.050;4.810;2022-11-14T08:37:34;46.13;;;23.20;;
37527;SDS011;23372;52.050;4.810;2022-11-14T08:39:59;46.53;;;23.40;;
37527;SDS011;23372;52.050;4.810;2022-11-14T08:42:25;42.50;;;23.03;;
37527;SDS011;23372;52.050;4.810;2022-11-14T08:44:51;53.13;;;26.10;;
37527;SDS011;23372;52.050;4.810;2022-11-14T08:47:16;46.73;;;23.17;;
37527;SDS011;23372;52.050;4.810;2022-11-14T08:49:42;48.87;;;23.63;;
37527;SDS011;23372;52.050;4.810;2022-11-14T08:52:07;51.37;;;24.53;;
37527;SDS011;23372;52.050;4.810;2022-11-14T08:54:33;43.70;;;23.37;;
37527;SDS011;23372;52.050;4.810;2022-11-14T08:56:58;46.07;;;24.17;;
37527;SDS011;23372;52.050;4.810;2022-11-14T08:59:24;50.50;;;23.87;;
37527;SDS011;23372;52.050;4.810;2022-11-14T09:01:49;47.30;;;22.87;;
37527;SDS011;23372;52.050;4.810;2022-11-14T09:04:15;44.43;;;23.30;;
37527;SDS011;23372;52.050;4.810;2022-11-14T09:06:40;41.60;;;22.93;;
37527;SDS011;23372;52.050;4.810;2022-11-14T09:09:06;39.10;;;22.67;;
37527;SDS011;23372;52.050;4.810;2022-11-14T09:11:31;45.80;;;25.10;;
37527;SDS011;23372;52.050;4.810;2022-11-14T09:13:57;46.43;;;24.73;;
37527;SDS011;23372;52.050;4.810;2022-11-14T09:16:22;49.40;;;25.50;;
37527;SDS011;23372;52.050;4.810;2022-11-14T09:18:48;40.80;;;22.43;;
37527;SDS011;23372;52.050;4.810;2022-11-14T09:21:13;35.87;;;19.80;;
37527;SDS011;23372;52.050;4.810;2022-11-14T09:23:39;27.90;;;16.53;;
37527;SDS011;23372;52.050;4.810;2022-11-14T09:26:05;25.43;;;15.43;;
37527;SDS011;23372;52.050;4.810;2022-11-14T09:28:32;22.57;;;14.30;;
37527;SDS011;23372;52.050;4.810;2022-11-14T09:31:01;25.43;;;14.97;;
37527;SDS011;23372;52.050;4.810;2022-11-14T09:33:28;25.47;;;13.10;;
37527;SDS011;23372;52.050;4.810;2022-11-14T09:35:57;23.17;;;12.90;;
37527;SDS011;23372;52.050;4.810;2022-11-14T09:38:27;21.30;;;13.27;;
37527;SDS011;23372;52.050;4.810;2022-11-14T09:46:41;19.27;;;13.23;;
37527;SDS011;23372;52.050;4.810;2022-11-14T09:49:10;19.93;;;12.53;;
37527;SDS011;23372;52.050;4.810;2022-11-14T09:51:48;23.07;;;13.23;;
37527;SDS011;23372;52.050;4.810;2022-11-14T09:54:22;18.27;;;12.53;;
37527;SDS011;23372;52.050;4.810;2022-11-14T09:56:50;18.90;;;12.70;;
37527;SDS011;23372;52.050;4.810;2022-11-14T09:59:16;20.20;;;12.27;;
37527;SDS011;23372;52.050;4.810;2022-11-14T10:05:48;20.20;;;13.13;;
37527;SDS011;23372;52.050;4.810;2022-11-14T10:08:14;25.50;;;14.90;;
37527;SDS011;23372;52.050;4.810;2022-11-14T10:11:06;20.17;;;13.77;;
37527;SDS011;23372;52.050;4.810;2022-11-14T10:16:19;23.40;;;13.47;;
37527;SDS011;23372;52.050;4.810;2022-11-14T10:19:18;20.30;;;13.57;;
37527;SDS011;23372;52.050;4.810;2022-11-14T10:24:31;19.90;;;13.07;;
37527;SDS011;23372;52.050;4.810;2022-11-14T10:27:10;23.73;;;14.37;;
37527;SDS011;23372;52.050;4.810;2022-11-14T10:34:48;24.47;;;15.53;;
37527;SDS011;23372;52.050;4.810;2022-11-14T10:37:40;19.23;;;13.17;;
37527;SDS011;23372;52.050;4.810;2022-11-14T10:40:34;18.87;;;12.03;;
37527;SDS011;23372;52.050;4.810;2022-11-14T10:43:14;21.80;;;13.10;;
37527;SDS011;23372;52.050;4.810;2022-11-14T10:45:46;20.70;;;12.40;;
37527;SDS011;23372;52.050;4.810;2022-11-14T10:48:24;19.93;;;12.83;;
37527;SDS011;23372;52.050;4.810;2022-11-14T10:51:07;18.90;;;12.73;;
37527;SDS011;23372;52.050;4.810;2022-11-14T10:56:33;21.00;;;13.40;;
37527;SDS011;23372;52.050;4.810;2022-11-14T10:58:59;19.53;;;13.13;;
37527;SDS011;23372;52.050;4.810;2022-11-14T11:04:10;19.67;;;13.13;;
37527;SDS011;23372;52.050;4.810;2022-11-14T11:06:37;20.63;;;13.03;;
37527;SDS011;23372;52.050;4.810;2022-11-14T11:09:07;22.67;;;13.50;;
37527;SDS011;23372;52.050;4.810;2022-11-14T11:11:56;22.93;;;13.53;;
37527;SDS011;23372;52.050;4.810;2022-11-14T11:14:23;20.00;;;12.67;;
37527;SDS011;23372;52.050;4.810;2022-11-14T11:17:06;19.97;;;12.20;;
37527;SDS011;23372;52.050;4.810;2022-11-14T11:19:34;17.37;;;11.77;;
37527;SDS011;23372;52.050;4.810;2022-11-14T11:22:00;17.23;;;12.37;;
37527;SDS011;23372;52.050;4.810;2022-11-14T11:24:29;20.27;;;13.30;;
37527;SDS011;23372;52.050;4.810;2022-11-14T11:27:11;20.70;;;13.03;;
37527;SDS011;23372;52.050;4.810;2022-11-14T11:29:49;17.37;;;11.93;;
37527;SDS011;23372;52.050;4.810;2022-11-14T11:32:47;16.20;;;12.40;;
37527;SDS011;23372;52.050;4.810;2022-11-14T11:35:13;21.03;;;12.57;;
37527;SDS011;23372;52.050;4.810;2022-11-14T11:37:42;18.50;;;11.90;;
37527;SDS011;23372;52.050;4.810;2022-11-14T11:40:21;19.40;;;13.27;;
37527;SDS011;23372;52.050;4.810;2022-11-14T11:42:57;16.57;;;11.17;;
37527;SDS011;23372;52.050;4.810;2022-11-14T11:45:28;18.70;;;11.80;;
37527;SDS011;23372;52.050;4.810;2022-11-14T11:47:57;18.47;;;12.00;;
37527;SDS011;23372;52.050;4.810;2022-11-14T11:50:27;19.60;;;12.47;;
37527;SDS011;23372;52.050;4.810;2022-11-14T11:53:05;15.97;;;11.20;;
37527;SDS011;23372;52.050;4.810;2022-11-14T11:56:11;17.70;;;11.60;;
37527;SDS011;23372;52.050;4.810;2022-11-14T11:58:46;17.47;;;11.67;;
37527;SDS011;23372;52.050;4.810;2022-11-14T12:01:14;16.90;;;12.33;;
37527;SDS011;23372;52.050;4.810;2022-11-14T12:03:45;19.10;;;12.57;;
37527;SDS011;23372;52.050;4.810;2022-11-14T12:06:17;18.70;;;12.03;;
37527;SDS011;23372;52.050;4.810;2022-11-14T12:11:24;23.17;;;13.07;;
37527;SDS011;23372;52.050;4.810;2022-11-14T12:14:07;19.37;;;12.53;;
37527;SDS011;23372;52.050;4.810;2022-11-14T12:17:13;20.60;;;12.90;;
37527;SDS011;23372;52.050;4.810;2022-11-14T12:20:19;16.13;;;12.00;;
37527;SDS011;23372;52.050;4.810;2022-11-14T12:30:57;18.80;;;13.37;;
37527;SDS011;23372;52.050;4.810;2022-11-14T12:33:29;20.50;;;12.13;;
37527;SDS011;23372;52.050;4.810;2022-11-14T12:35:58;21.90;;;13.47;;
37527;SDS011;23372;52.050;4.810;2022-11-14T12:38:40;19.73;;;13.77;;
37527;SDS011;23372;52.050;4.810;2022-11-14T12:41:11;17.37;;;13.43;;
37527;SDS011;23372;52.050;4.810;2022-11-14T12:43:47;20.70;;;13.23;;
37527;SDS011;23372;52.050;4.810;2022-11-14T12:46:13;19.20;;;13.50;;
37527;SDS011;23372;52.050;4.810;2022-11-14T12:48:40;20.53;;;13.00;;
37527;SDS011;23372;52.050;4.810;2022-11-14T12:51:52;20.03;;;12.97;;
37527;SDS011;23372;52.050;4.810;2022-11-14T12:53:58;18.10;;;12.83;;
37527;SDS011;23372;52.050;4.810;2022-11-14T13:07:24;23.63;;;14.50;;
37527;SDS011;23372;52.050;4.810;2022-11-14T13:10:14;18.17;;;13.47;;
37527;SDS011;23372;52.050;4.810;2022-11-14T13:12:55;20.07;;;14.87;;
37527;SDS011;23372;52.050;4.810;2022-11-14T13:15:49;21.57;;;14.70;;
37527;SDS011;23372;52.050;4.810;2022-11-14T13:18:50;26.40;;;17.47;;
37527;SDS011;23372;52.050;4.810;2022-11-14T13:27:26;27.50;;;18.17;;
37527;SDS011;23372;52.050;4.810;2022-11-14T13:29:53;27.67;;;18.73;;
37527;SDS011;23372;52.050;4.810;2022-11-14T13:35:04;30.33;;;19.43;;
37527;SDS011;23372;52.050;4.810;2022-11-14T13:37:53;35.20;;;19.23;;
37527;SDS011;23372;52.050;4.810;2022-11-14T13:41:05;29.60;;;18.80;;
37527;SDS011;23372;52.050;4.810;2022-11-14T13:43:56;34.23;;;20.20;;
37527;SDS011;23372;52.050;4.810;2022-11-14T13:46:41;28.80;;;20.33;;
37527;SDS011;23372;52.050;4.810;2022-11-14T13:52:17;32.37;;;21.03;;
37527;SDS011;23372;52.050;4.810;2022-11-14T13:54:49;33.53;;;21.10;;
37527;SDS011;23372;52.050;4.810;2022-11-14T13:57:21;33.27;;;21.33;;
37527;SDS011;23372;52.050;4.810;2022-11-14T14:05:39;32.93;;;21.27;;
37527;SDS011;23372;52.050;4.810;2022-11-14T14:10:57;35.43;;;22.13;;
37527;SDS011;23372;52.050;4.810;2022-11-14T14:13:44;29.87;;;20.30;;
37527;SDS011;23372;52.050;4.810;2022-11-14T14:19:15;30.13;;;21.13;;
37527;SDS011;23372;52.050;4.810;2022-11-14T14:21:49;32.87;;;21.83;;
37527;SDS011;23372;52.050;4.810;2022-11-14T14:32:39;51.43;;;30.13;;
37527;SDS011;23372;52.050;4.810;2022-11-14T14:35:21;49.10;;;31.43;;
37527;SDS011;23372;52.050;4.810;2022-11-14T14:37:49;56.50;;;33.47;;
37527;SDS011;23372;52.050;4.810;2022-11-14T14:42:50;52.63;;;31.53;;
37527;SDS011;23372;52.050;4.810;2022-11-14T14:45:17;53.73;;;33.83;;
37527;SDS011;23372;52.050;4.810;2022-11-14T14:47:45;54.13;;;32.57;;
37527;SDS011;23372;52.050;4.810;2022-11-14T14:50:18;56.27;;;33.53;;
37527;SDS011;23372;52.050;4.810;2022-11-14T14:52:53;57.37;;;35.97;;
37527;SDS011;23372;52.050;4.810;2022-11-14T14:55:27;58.03;;;36.87;;
37527;SDS011;23372;52.050;4.810;2022-11-14T14:57:56;58.80;;;37.43;;
37527;SDS011;23372;52.050;4.810;2022-11-14T15:00:38;61.30;;;38.33;;
37527;SDS011;23372;52.050;4.810;2022-11-14T15:03:03;71.20;;;40.37;;
37527;SDS011;23372;52.050;4.810;2022-11-14T15:05:29;67.37;;;41.73;;
37527;SDS011;23372;52.050;4.810;2022-11-14T15:07:56;70.93;;;41.93;;
37527;SDS011;23372;52.050;4.810;2022-11-14T15:10:32;72.63;;;41.53;;
37527;SDS011;23372;52.050;4.810;2022-11-14T15:12:58;71.33;;;43.03;;
37527;SDS011;23372;52.050;4.810;2022-11-14T15:15:24;71.37;;;41.70;;
37527;SDS011;23372;52.050;4.810;2022-11-14T15:17:51;75.60;;;42.10;;
37527;SDS011;23372;52.050;4.810;2022-11-14T15:20:19;69.57;;;40.53;;
37527;SDS011;23372;52.050;4.810;2022-11-14T15:26:00;74.63;;;40.70;;
37527;SDS011;23372;52.050;4.810;2022-11-14T15:28:27;74.87;;;39.83;;
37527;SDS011;23372;52.050;4.810;2022-11-14T15:30:57;79.30;;;43.83;;
37527;SDS011;23372;52.050;4.810;2022-11-14T15:33:30;76.90;;;41.93;;
37527;SDS011;23372;52.050;4.810;2022-11-14T15:36:04;76.40;;;41.10;;
37527;SDS011;23372;52.050;4.810;2022-11-14T15:38:32;78.20;;;43.33;;
37527;SDS011;23372;52.050;4.810;2022-11-14T15:41:18;75.90;;;42.37;;
37527;SDS011;23372;52.050;4.810;2022-11-14T15:43:46;72.40;;;39.90;;
37527;SDS011;23372;52.050;4.810;2022-11-14T15:46:56;77.47;;;40.60;;
37527;SDS011;23372;52.050;4.810;2022-11-14T15:49:08;69.27;;;38.97;;
37527;SDS011;23372;52.050;4.810;2022-11-14T15:54:20;70.90;;;39.00;;
37527;SDS011;23372;52.050;4.810;2022-11-14T15:56:50;73.13;;;38.13;;
37527;SDS011;23372;52.050;4.810;2022-11-14T15:59:17;70.27;;;38.00;;
37527;SDS011;23372;52.050;4.810;2022-11-14T16:01:43;68.27;;;37.87;;
37527;SDS011;23372;52.050;4.810;2022-11-14T16:04:15;71.63;;;38.13;;